createdAt,value
2022-09-30T00:01:53.148Z,8.07
2022-09-30T00:04:24.072Z,9.68
2022-09-30T00:06:54.652Z,9.00
2022-09-30T00:09:22.426Z,8.38
2022-09-30T00:11:49.585Z,8.32
2022-09-30T00:14:23.149Z,8.90
2022-09-30T00:16:50.310Z,9.65
2022-09-30T00:19:17.356Z,9.32
2022-09-30T00:21:44.404Z,8.25
2022-09-30T00:24:11.537Z,7.95
2022-09-30T00:26:38.568Z,8.32
2022-09-30T00:29:06.239Z,8.13
2022-09-30T00:31:35.907Z,8.48
2022-09-30T00:34:07.002Z,9.30
2022-09-30T00:36:50.437Z,8.27
2022-09-30T00:39:26.886Z,8.60
2022-09-30T00:41:58.898Z,8.20
2022-09-30T00:45:13.698Z,8.25
2022-09-30T00:47:53.620Z,8.88
2022-09-30T00:50:46.187Z,8.75
2022-09-30T00:53:57.143Z,8.60
2022-09-30T00:56:30.602Z,8.50
2022-09-30T00:59:10.418Z,9.30
2022-09-30T01:01:42.024Z,8.70
2022-09-30T01:04:17.693Z,8.65
2022-09-30T01:06:44.925Z,7.95
2022-09-30T01:09:12.377Z,8.45
2022-09-30T01:11:40.039Z,8.85
2022-09-30T01:14:21.652Z,9.18
2022-09-30T01:16:58.932Z,9.05
2022-09-30T01:20:11.535Z,8.57
2022-09-30T01:23:11.807Z,7.75
2022-09-30T01:26:03.582Z,8.88
2022-09-30T01:29:04.414Z,8.30
2022-09-30T01:31:52.518Z,7.90
2022-09-30T01:34:37.481Z,6.72
2022-09-30T01:37:19.158Z,8.77
2022-09-30T01:39:51.765Z,7.85
2022-09-30T01:42:42.151Z,7.97
2022-09-30T01:45:44.717Z,7.10
2022-09-30T01:48:57.086Z,8.73
2022-09-30T01:51:53.429Z,8.73
2022-09-30T01:55:04.992Z,9.57
2022-09-30T01:57:42.059Z,9.40
2022-09-30T02:00:11.576Z,8.43
2022-09-30T02:02:51.723Z,9.82
2022-09-30T02:05:43.676Z,9.60
2022-09-30T02:08:50.269Z,7.97
2022-09-30T02:11:25.892Z,8.63
2022-09-30T02:14:08.024Z,8.60
2022-09-30T02:16:43.743Z,9.45
2022-09-30T02:19:30.096Z,7.85
2022-09-30T02:22:26.440Z,8.90
2022-09-30T02:25:01.606Z,8.32
2022-09-30T05:14:01.031Z,8.55
2022-09-30T05:16:28.093Z,9.48
2022-09-30T05:18:55.233Z,9.07
2022-09-30T05:21:22.106Z,10.43
2022-09-30T05:23:49.117Z,10.68
2022-09-30T05:26:16.789Z,10.10
2022-09-30T05:28:43.931Z,10.95
2022-09-30T05:31:13.418Z,11.07
2022-09-30T05:33:41.793Z,11.57
2022-09-30T05:36:13.325Z,11.48
2022-09-30T05:38:40.268Z,10.77
2022-09-30T05:41:13.716Z,9.93
2022-09-30T05:43:45.300Z,10.88
2022-09-30T05:46:12.705Z,10.70
2022-09-30T05:48:40.145Z,9.30
2022-09-30T05:51:07.577Z,14.07
2022-09-30T05:53:41.218Z,16.00
2022-09-30T05:56:10.502Z,23.27
2022-09-30T05:58:38.663Z,16.38
2022-09-30T06:01:13.549Z,11.63
2022-09-30T06:03:43.729Z,11.55
2022-09-30T06:06:11.032Z,14.95
2022-09-30T06:08:38.057Z,11.48
2022-09-30T06:11:14.402Z,10.55
2022-09-30T06:13:43.172Z,9.43
2022-09-30T06:16:11.888Z,9.02
2022-09-30T06:18:41.585Z,10.75
2022-09-30T06:21:12.506Z,8.80
2022-09-30T06:23:40.534Z,9.15
2022-09-30T06:26:09.563Z,8.82
2022-09-30T06:28:36.462Z,9.25
2022-09-30T06:31:05.607Z,8.57
2022-09-30T06:33:33.318Z,8.57
2022-09-30T06:36:04.301Z,10.40
2022-09-30T06:38:33.219Z,9.55
2022-09-30T06:41:01.010Z,10.50
2022-09-30T06:43:29.029Z,8.85
2022-09-30T06:46:08.799Z,11.85
2022-09-30T06:48:40.982Z,12.30
2022-09-30T06:51:11.141Z,11.93
2022-09-30T06:53:40.061Z,10.88
2022-09-30T06:56:07.085Z,11.88
2022-09-30T06:58:34.405Z,11.05
2022-09-30T07:01:06.490Z,11.45
2022-09-30T07:03:36.051Z,10.52
2022-09-30T07:06:05.734Z,11.20
2022-09-30T07:08:35.571Z,10.27
2022-09-30T07:11:14.284Z,11.55
2022-09-30T07:13:43.403Z,11.02
2022-09-30T07:16:12.140Z,9.73
2022-09-30T07:18:42.234Z,8.80
2022-09-30T07:21:10.777Z,9.13
2022-09-30T07:23:37.714Z,9.43
2022-09-30T07:26:05.829Z,10.77
2022-09-30T07:28:39.332Z,8.80
2022-09-30T07:31:31.408Z,8.23
2022-09-30T07:34:00.592Z,8.65
2022-09-30T07:36:32.690Z,8.52
2022-09-30T07:39:05.345Z,9.05
2022-09-30T07:41:36.379Z,9.50
2022-09-30T07:44:06.236Z,7.78
2022-09-30T07:46:38.626Z,8.00
2022-09-30T07:49:08.862Z,8.00
2022-09-30T07:51:45.902Z,7.93
2022-09-30T07:54:16.902Z,8.85
2022-09-30T07:57:08.797Z,8.18
2022-09-30T07:59:38.217Z,8.88
2022-09-30T08:02:07.573Z,7.95
2022-09-30T08:04:35.086Z,8.38
2022-09-30T08:07:04.749Z,8.68
2022-09-30T08:09:32.089Z,9.00
2022-09-30T08:11:59.301Z,8.32
2022-09-30T08:14:28.258Z,7.00
2022-09-30T08:17:00.350Z,7.93
2022-09-30T08:19:30.430Z,7.70
2022-09-30T08:21:58.257Z,8.73
2022-09-30T08:24:26.666Z,7.57
2022-09-30T08:26:54.942Z,9.02
2022-09-30T10:20:54.211Z,2.65
2022-09-30T10:23:27.867Z,2.50
2022-09-30T10:26:06.880Z,2.30
2022-09-30T10:28:57.839Z,3.03
2022-09-30T10:31:32.901Z,2.75
2022-09-30T10:34:18.729Z,2.90
2022-09-30T10:36:46.849Z,2.78
2022-09-30T10:39:43.284Z,2.67
2022-09-30T10:42:30.177Z,2.45
2022-09-30T10:45:17.697Z,2.50
2022-09-30T10:47:50.053Z,2.15
2022-09-30T10:50:27.695Z,2.05
2022-09-30T10:53:15.385Z,1.88
2022-09-30T10:55:45.439Z,1.80
2022-09-30T10:58:49.745Z,1.40
2022-09-30T11:01:32.613Z,1.88
2022-09-30T11:04:28.652Z,1.75
2022-09-30T11:07:11.424Z,1.58
2022-09-30T11:09:57.844Z,1.70
2022-09-30T11:12:29.579Z,1.40
2022-09-30T11:15:43.294Z,1.77
2022-09-30T11:18:29.675Z,1.63
2022-09-30T11:21:06.830Z,1.60
2022-09-30T11:23:41.027Z,1.40
2022-09-30T11:26:47.026Z,2.05
2022-09-30T11:29:13.884Z,2.13
2022-09-30T11:32:18.201Z,2.63
2022-09-30T11:35:28.220Z,1.73
2022-09-30T11:38:15.692Z,2.20
2022-09-30T11:41:06.974Z,1.98
2022-09-30T11:44:27.125Z,1.83
2022-09-30T11:47:03.275Z,2.03
2022-09-30T11:50:01.126Z,1.80
2022-09-30T11:53:08.666Z,1.73
2022-09-30T11:56:32.925Z,1.83
2022-09-30T11:59:07.532Z,1.80
2022-09-30T12:01:45.509Z,1.98
2022-09-30T12:04:12.373Z,1.80
2022-09-30T12:06:59.375Z,1.73
2022-09-30T12:09:43.112Z,1.40
2022-09-30T12:12:17.979Z,1.77
2022-09-30T12:18:11.306Z,1.48
2022-09-30T12:20:58.659Z,1.55
2022-09-30T12:23:32.068Z,1.50
2022-09-30T12:26:09.021Z,1.40
2022-09-30T12:29:03.719Z,1.40
2022-09-30T12:32:01.244Z,1.40
2022-09-30T12:35:16.095Z,1.50
2022-09-30T12:37:53.447Z,1.42
2022-09-30T12:40:52.413Z,1.45
2022-09-30T12:43:46.816Z,1.40
2022-09-30T12:46:24.897Z,1.27
2022-09-30T12:49:03.787Z,1.42
2022-09-30T12:51:34.958Z,1.38
2022-09-30T12:54:22.541Z,1.30
2022-09-30T12:57:06.561Z,1.27
2022-09-30T12:59:38.847Z,1.00
2022-09-30T13:02:08.450Z,0.98
2022-09-30T13:04:42.878Z,1.40
2022-09-30T13:07:22.495Z,1.08
2022-09-30T13:10:30.625Z,1.30
2022-09-30T13:13:29.120Z,1.10
2022-09-30T13:16:04.496Z,1.20
2022-09-30T13:18:31.412Z,1.10
2022-09-30T13:21:10.756Z,0.95
2022-09-30T13:23:48.641Z,1.15
2022-09-30T13:26:27.691Z,1.00
2022-09-30T13:29:01.752Z,1.13
2022-09-30T13:31:51.627Z,1.23
2022-09-30T13:34:33.546Z,1.30
2022-09-30T13:37:04.053Z,1.20
2022-09-30T13:39:52.365Z,1.20
2022-09-30T13:42:48.628Z,1.23
2022-09-30T13:45:31.247Z,1.33
2022-09-30T13:48:51.827Z,1.50
2022-09-30T13:51:27.365Z,1.70
2022-09-30T13:54:04.101Z,1.20
2022-09-30T13:56:40.198Z,1.25
2022-09-30T13:59:32.773Z,1.20
2022-09-30T14:02:45.232Z,1.10
2022-09-30T14:05:43.171Z,1.25
2022-09-30T14:08:31.955Z,1.20
2022-09-30T14:11:59.382Z,1.15
2022-09-30T14:15:02.434Z,1.33
2022-09-30T14:18:06.474Z,1.40
2022-09-30T14:21:31.439Z,1.30
2022-09-30T14:24:16.148Z,1.33
2022-09-30T14:27:21.610Z,1.30
2022-09-30T14:32:57.750Z,1.20
2022-09-30T14:35:32.103Z,1.10
2022-09-30T14:38:28.307Z,1.50
2022-09-30T14:41:00.474Z,1.50
2022-09-30T14:43:57.316Z,1.40
2022-09-30T14:46:47.082Z,1.83
2022-09-30T14:49:24.076Z,1.40
2022-09-30T14:51:51.195Z,1.20
2022-09-30T14:54:22.226Z,1.10
2022-09-30T14:56:54.377Z,1.42
2022-09-30T14:59:31.939Z,1.52
2022-09-30T15:02:21.397Z,1.45
2022-09-30T15:04:55.237Z,1.35
2022-09-30T15:07:25.049Z,1.20
2022-09-30T15:09:53.486Z,1.48
2022-09-30T15:12:25.420Z,1.35
2022-09-30T15:14:58.907Z,1.40
2022-09-30T15:17:36.793Z,1.45
2022-09-30T15:20:23.862Z,1.40
2022-09-30T15:22:55.305Z,1.23
2022-09-30T15:25:22.853Z,1.23
2022-09-30T15:27:50.951Z,1.40
2022-09-30T15:30:18.279Z,1.67
2022-09-30T15:32:49.461Z,1.50
2022-09-30T15:35:23.427Z,1.17
2022-09-30T15:37:52.029Z,1.38
2022-09-30T15:40:42.760Z,1.35
2022-09-30T15:43:14.520Z,1.63
2022-09-30T15:45:48.500Z,1.40
2022-09-30T15:48:25.724Z,1.27
2022-09-30T15:51:01.454Z,1.50
2022-09-30T15:53:37.637Z,1.67
2022-09-30T15:56:27.086Z,1.40
2022-09-30T15:59:13.085Z,1.50
2022-09-30T16:01:43.806Z,1.67
2022-09-30T16:04:22.780Z,1.30
2022-09-30T16:06:55.054Z,1.63
2022-09-30T16:09:34.391Z,1.50
2022-09-30T16:12:14.765Z,1.42
2022-09-30T16:15:07.017Z,1.30
2022-09-30T16:17:38.054Z,1.30
2022-09-30T16:20:24.033Z,1.10
2022-09-30T16:22:55.838Z,1.40
2022-09-30T16:25:28.197Z,1.50
2022-09-30T16:28:13.672Z,1.33
2022-09-30T16:30:50.928Z,1.33
2022-09-30T16:33:18.477Z,1.75
2022-09-30T16:35:47.463Z,1.35
2022-09-30T16:38:17.594Z,1.75
2022-09-30T16:40:44.623Z,1.60
2022-09-30T16:43:11.791Z,1.90
2022-09-30T16:45:43.140Z,1.77
2022-09-30T16:48:18.615Z,1.85
2022-09-30T16:50:54.462Z,1.60
2022-09-30T16:53:21.941Z,1.80
2022-09-30T16:55:49.663Z,1.95
2022-09-30T16:58:16.837Z,2.38
2022-09-30T17:00:45.287Z,2.00
2022-09-30T17:03:15.548Z,1.98
2022-09-30T17:05:45.455Z,2.35
2022-09-30T17:08:16.485Z,2.25
2022-09-30T17:10:47.391Z,2.67
2022-09-30T17:13:17.693Z,2.70
2022-09-30T17:15:51.153Z,2.60
2022-09-30T17:18:19.018Z,2.83
2022-09-30T17:20:53.151Z,2.58
2022-09-30T17:23:23.634Z,3.25
2022-09-30T17:25:51.272Z,3.25
2022-09-30T17:28:18.617Z,3.15
2022-09-30T17:30:48.148Z,3.00
2022-09-30T17:33:16.746Z,3.47
2022-09-30T17:35:43.625Z,3.38
2022-09-30T17:38:13.066Z,4.13
2022-09-30T17:40:58.461Z,3.08
2022-09-30T17:45:55.033Z,3.30
2022-09-30T17:48:22.495Z,3.80
2022-09-30T17:50:49.475Z,3.70
2022-09-30T17:53:20.065Z,3.47
2022-09-30T17:56:00.179Z,3.75
2022-09-30T17:58:27.913Z,3.90
2022-09-30T18:00:57.773Z,3.72
2022-09-30T18:03:25.515Z,4.00
2022-09-30T18:05:59.489Z,4.78
2022-09-30T18:08:28.245Z,4.78
2022-09-30T18:10:58.749Z,4.65
2022-09-30T18:13:28.670Z,4.20
2022-09-30T18:15:59.131Z,4.00
2022-09-30T18:18:26.052Z,3.88
2022-09-30T18:20:52.956Z,3.47
2022-09-30T18:23:20.020Z,4.18
2022-09-30T18:25:49.665Z,4.10
2022-09-30T18:28:17.701Z,3.90
2022-09-30T18:30:44.759Z,3.55
2022-09-30T18:33:11.618Z,3.85
2022-09-30T18:35:39.609Z,4.13
2022-09-30T18:38:06.976Z,3.85
2022-09-30T18:40:34.274Z,3.95
2022-09-30T18:43:05.287Z,5.20
2022-09-30T18:45:36.543Z,4.57
2022-09-30T18:48:04.383Z,4.82
2022-09-30T18:50:32.683Z,4.57
2022-09-30T18:53:08.066Z,4.78
2022-09-30T18:55:38.339Z,4.22
2022-09-30T18:58:06.019Z,4.60
2022-09-30T19:00:33.476Z,4.93
2022-09-30T19:03:00.465Z,5.55
2022-09-30T19:05:27.748Z,5.00
2022-09-30T19:07:55.873Z,5.43
2022-09-30T19:10:24.386Z,5.65
2022-09-30T19:12:51.982Z,5.50
2022-09-30T19:15:19.354Z,4.72
2022-09-30T19:17:46.991Z,5.43
2022-09-30T19:20:15.363Z,4.68
2022-09-30T19:22:42.602Z,4.88
2022-09-30T19:25:15.964Z,5.05
2022-09-30T19:27:46.068Z,5.50
2022-09-30T19:30:14.647Z,8.18
2022-09-30T19:32:41.793Z,10.68
2022-09-30T19:35:11.895Z,17.02
2022-09-30T19:37:59.990Z,15.85
2022-09-30T19:40:34.734Z,13.45
2022-09-30T19:43:05.228Z,10.38
2022-09-30T19:45:32.717Z,9.25
2022-09-30T19:48:04.775Z,8.52
2022-09-30T19:50:35.873Z,7.93
2022-09-30T19:53:02.743Z,6.90
2022-09-30T19:55:31.236Z,7.10
2022-09-30T19:58:00.419Z,6.82
2022-09-30T20:00:27.488Z,5.93
2022-09-30T20:02:56.174Z,6.85
2022-09-30T20:05:23.659Z,6.18
2022-09-30T20:07:52.132Z,6.38
2022-09-30T20:10:19.407Z,5.90
2022-09-30T20:12:46.328Z,6.03
2022-09-30T20:15:31.754Z,5.65
2022-09-30T20:17:58.890Z,5.95
2022-09-30T20:20:34.484Z,5.70
2022-09-30T20:23:01.467Z,5.10
2022-09-30T20:25:32.062Z,5.57
2022-09-30T20:27:59.060Z,4.82
